Time;durP1;ratioP1;P1;durP2;ratioP2;P2;SDS_P1;SDS_P2;PMS_P1;PMS_P2;Temp;Humidity;BMP_temperature;BMP_pressure;BME280_temperature;BME280_humidity;BME280_pressure;Samples;Min_cycle;Max_cycle;Signal;HPM_P1;HPM_P2
2021/08/26 00:06:47;;;;;;;;;18.00;16.00;;;;;17.68;59.26;101128.22;5077831;28;45487;-60
2021/08/26 00:09:15;;;;;;;;;18.00;17.25;;;;;17.62;59.29;101126.25;5076819;28;62139;-59
2021/08/26 00:11:44;;;;;;;;;17.25;14.25;;;;;17.56;59.58;101119.75;5059197;28;46928;-60
2021/08/26 00:14:09;;;;;;;;;17.25;15.25;;;;;17.58;59.34;101127.56;5089588;27;45296;-61
2021/08/26 00:16:35;;;;;;;;;19.00;18.50;;;;;17.57;59.76;101123.25;5097167;27;51944;-60
2021/08/26 00:19:00;;;;;;;;;23.00;20.25;;;;;17.54;59.78;101127.06;5096852;27;70493;-63
2021/08/26 00:21:28;;;;;;;;;22.50;21.25;;;;;17.49;60.00;101127.56;5096335;27;75463;-60
2021/08/26 00:23:53;;;;;;;;;19.75;17.75;;;;;17.46;60.48;101137.72;5097745;27;46008;-60
2021/08/26 00:26:18;;;;;;;;;20.75;18.00;;;;;17.42;60.59;101136.38;5078596;27;66644;-60
2021/08/26 00:28:44;;;;;;;;;19.25;17.00;;;;;17.40;60.31;101135.72;5096607;27;69423;-60
2021/08/26 00:31:09;;;;;;;;;16.75;15.25;;;;;17.37;60.94;101134.22;5096575;27;70909;-60
2021/08/26 00:33:34;;;;;;;;;22.75;21.25;;;;;17.34;60.92;101131.88;5096738;27;68588;-60
2021/08/26 00:36:00;;;;;;;;;14.50;14.50;;;;;17.31;60.80;101129.56;5096815;27;64675;-60
2021/08/26 00:38:25;;;;;;;;;22.00;18.25;;;;;17.28;61.10;101136.03;5097107;27;57775;-59
2021/08/26 00:40:52;;;;;;;;;19.75;17.50;;;;;17.27;61.03;101134.38;5096615;27;46053;-60
2021/08/26 00:43:17;;;;;;;;;21.25;19.25;;;;;17.24;61.20;101134.72;5097310;27;45183;-60
2021/08/26 00:45:43;;;;;;;;;17.25;14.25;;;;;17.20;61.46;101136.03;5096694;27;64016;-60
2021/08/26 00:48:08;;;;;;;;;15.75;14.75;;;;;17.15;61.48;101135.69;5078364;27;65787;-61
2021/08/26 00:50:34;;;;;;;;;20.75;20.00;;;;;17.10;61.50;101125.59;5096863;27;55764;-60
2021/08/26 00:52:59;;;;;;;;;20.25;17.25;;;;;17.08;61.64;101124.06;5097151;27;46594;-59
2021/08/26 00:55:25;;;;;;;;;15.50;15.50;;;;;17.06;61.50;101127.72;5096294;27;45216;-60
2021/08/26 00:57:50;;;;;;;;;14.25;13.75;;;;;17.02;61.25;101126.38;5097301;27;45299;-60
2021/08/26 01:00:16;;;;;;;;;14.75;13.00;;;;;16.97;61.88;101126.03;5077999;27;68522;-60
2021/08/26 01:02:48;;;;;;;;;14.75;14.00;;;;;16.92;61.88;101131.00;5078969;27;45300;-59
2021/08/26 01:05:24;;;;;;;;;15.00;11.75;;;;;16.88;61.76;101125.19;5097440;27;45374;-60
2021/08/26 01:07:55;;;;;;;;;14.50;13.25;;;;;16.85;62.00;101122.03;5079156;27;45547;-60
2021/08/26 01:10:20;;;;;;;;;15.00;12.50;;;;;16.81;62.00;101110.09;5096987;27;45911;-59
2021/08/26 01:12:46;;;;;;;;;13.75;12.50;;;;;16.81;62.23;101118.03;5062060;27;45367;-59
2021/08/26 01:15:12;;;;;;;;;11.00;10.50;;;;;16.81;62.43;101108.25;5097100;27;45355;-60
2021/08/26 01:17:37;;;;;;;;;9.00;7.00;;;;;16.76;62.36;101105.25;5097032;27;45414;-60
2021/08/26 01:20:04;;;;;;;;;8.00;7.25;;;;;16.73;62.36;101108.22;5095980;27;73352;-59
2021/08/26 01:22:29;;;;;;;;;10.50;9.75;;;;;16.73;62.58;101097.59;5096627;27;45375;-60
2021/08/26 01:24:56;;;;;;;;;9.00;8.00;;;;;16.71;62.29;101099.59;5077977;27;63063;-60
2021/08/26 01:27:23;;;;;;;;;9.25;8.75;;;;;16.70;62.39;101101.44;5078808;27;45566;-59
2021/08/26 01:29:49;;;;;;;;;12.25;8.50;;;;;16.67;62.44;101096.44;5061477;27;57313;-60
2021/08/26 01:32:20;;;;;;;;;11.50;7.50;;;;;16.65;62.58;101103.75;5061658;27;45610;-60
2021/08/26 01:34:47;;;;;;;;;9.25;7.75;;;;;16.66;62.39;101093.97;5096944;27;45320;-60
2021/08/26 01:37:15;;;;;;;;;10.50;10.50;;;;;16.67;62.11;101092.97;5096843;27;45384;-60
2021/08/26 01:39:48;;;;;;;;;10.00;7.00;;;;;16.66;62.59;101088.66;5096664;27;45388;-60
2021/08/26 01:42:14;;;;;;;;;14.25;11.00;;;;;16.64;62.56;101086.16;5096676;27;45971;-60
2021/08/26 01:44:39;;;;;;;;;6.75;4.00;;;;;16.62;62.59;101088.16;5096784;27;45503;-61
2021/08/26 01:47:09;;;;;;;;;9.50;9.50;;;;;16.58;62.84;101087.66;5095693;27;69418;-60
2021/08/26 01:49:35;;;;;;;;;11.00;9.50;;;;;16.55;62.76;101081.81;5078205;27;46251;-60
2021/08/26 01:52:00;;;;;;;;;10.75;10.25;;;;;16.49;63.17;101080.66;5096429;27;45422;-60
2021/08/26 01:54:25;;;;;;;;;15.75;11.50;;;;;16.42;63.38;101079.63;5095791;27;64568;-59
2021/08/26 01:56:51;;;;;;;;;12.00;9.25;;;;;16.37;63.38;101080.13;5095744;27;65570;-60
2021/08/26 01:59:16;;;;;;;;;12.00;11.00;;;;;16.35;63.40;101082.13;5095345;27;73357;-60
2021/08/26 02:01:41;;;;;;;;;16.00;11.75;;;;;16.31;63.59;101076.28;5095601;27;67994;-59
2021/08/26 02:04:07;;;;;;;;;12.00;10.50;;;;;16.28;63.76;101079.25;5095520;27;67035;-60
2021/08/26 02:06:32;;;;;;;;;13.25;10.25;;;;;16.27;63.97;101082.09;5096101;27;69189;-60
2021/08/26 02:08:58;;;;;;;;;15.00;11.25;;;;;16.26;63.54;101083.06;5099793;27;45986;-60
2021/08/26 02:11:23;;;;;;;;;14.00;11.75;;;;;16.23;64.11;101083.41;5099521;27;58521;-60
2021/08/26 02:13:49;;;;;;;;;11.75;9.25;;;;;16.19;64.35;101076.75;5100072;27;45241;-61
2021/08/26 02:16:14;;;;;;;;;14.25;11.25;;;;;16.15;64.36;101078.91;5099774;27;45461;-60
2021/08/26 02:18:41;;;;;;;;;11.00;9.00;;;;;16.09;64.53;101079.53;5098880;27;45861;-59
2021/08/26 02:21:07;;;;;;;;;12.25;9.25;;;;;16.04;64.60;101084.47;5099368;27;45776;-59
2021/08/26 02:23:32;;;;;;;;;12.50;10.50;;;;;16.02;64.44;101084.63;5098805;27;67033;-60
2021/08/26 02:25:58;;;;;;;;;14.50;11.50;;;;;15.99;64.88;101076.97;5099760;27;45224;-60
2021/08/26 02:28:23;;;;;;;;;12.25;11.50;;;;;15.98;64.96;101077.97;5099515;27;45451;-60
2021/08/26 02:30:48;;;;;;;;;12.00;10.75;;;;;15.98;64.80;101081.47;5098789;27;66395;-60
2021/08/26 02:33:14;;;;;;;;;14.50;11.50;;;;;15.95;64.87;101081.78;5098832;27;63854;-59
2021/08/26 02:35:39;;;;;;;;;14.25;12.25;;;;;15.93;64.95;101073.16;5099594;27;45222;-59
2021/08/26 02:38:05;;;;;;;;;15.75;12.50;;;;;15.93;65.05;101082.91;5099455;27;45261;-60
2021/08/26 02:40:31;;;;;;;;;12.00;11.75;;;;;15.90;65.04;101083.25;5098132;27;69033;-60
2021/08/26 02:42:56;;;;;;;;;14.00;12.50;;;;;15.87;65.21;101085.22;5099453;27;45397;-60
2021/08/26 02:45:21;;;;;;;;;11.75;10.25;;;;;15.87;65.07;101076.44;5081141;27;45554;-59
2021/08/26 02:47:48;;;;;;;;;13.00;10.00;;;;;15.86;65.27;101075.63;5098392;27;71629;-60
2021/08/26 02:50:13;;;;;;;;;19.75;13.25;;;;;15.87;64.91;101084.38;5098933;27;45402;-60
2021/08/26 02:52:39;;;;;;;;;16.75;13.50;;;;;15.84;65.02;101080.22;5099438;27;45472;-59
2021/08/26 02:55:04;;;;;;;;;12.25;11.00;;;;;15.81;65.26;101075.22;5098531;27;62464;-60
2021/08/26 02:57:29;;;;;;;;;14.00;12.75;;;;;15.79;65.06;101074.56;5098671;27;53977;-59
2021/08/26 02:59:55;;;;;;;;;12.75;12.25;;;;;15.74;65.62;101074.19;5098177;27;68316;-60
2021/08/26 03:02:20;;;;;;;;;13.25;11.75;;;;;15.71;65.73;101063.91;5099317;27;45652;-59
2021/08/26 03:04:45;;;;;;;;;15.75;13.50;;;;;15.67;65.40;101059.91;5098212;27;69674;-60
2021/08/26 03:07:11;;;;;;;;;13.25;11.75;;;;;15.63;65.61;101063.84;5097952;27;71109;-60
2021/08/26 03:09:36;;;;;;;;;12.25;10.75;;;;;15.62;65.91;101059.53;5098100;27;68317;-60
2021/08/26 03:12:04;;;;;;;;;13.50;11.25;;;;;15.62;65.90;101068.34;5098191;27;63542;-60
2021/08/26 03:14:29;;;;;;;;;17.25;13.00;;;;;15.61;65.95;101055.22;5098925;27;45578;-60
2021/08/26 03:16:55;;;;;;;;;15.25;12.25;;;;;15.61;66.10;101058.72;5097940;27;70273;-59
2021/08/26 03:19:20;;;;;;;;;14.75;10.00;;;;;15.58;65.84;101054.56;5096647;27;70620;-61
2021/08/26 03:21:45;;;;;;;;;13.75;11.75;;;;;15.61;65.62;101063.19;5098547;27;45210;-60
2021/08/26 03:24:11;;;;;;;;;11.50;11.50;;;;;15.61;65.90;101049.94;5098718;27;45220;-61
2021/08/26 03:26:37;;;;;;;;;16.00;12.00;;;;;15.62;65.49;101049.78;5097690;27;71284;-60
2021/08/26 03:29:02;;;;;;;;;13.75;11.25;;;;;15.62;65.46;101054.25;5098588;27;45266;-60
2021/08/26 03:31:27;;;;;;;;;9.25;8.75;;;;;15.62;65.68;101055.09;5097720;27;66411;-59
2021/08/26 03:33:53;;;;;;;;;12.50;10.75;;;;;15.64;65.71;101055.75;5097937;27;45636;-60
2021/08/26 03:36:18;;;;;;;;;11.00;10.50;;;;;15.64;65.36;101058.38;5097548;27;75194;-60
2021/08/26 03:38:43;;;;;;;;;13.75;11.25;;;;;15.65;65.67;101051.28;5098474;27;45409;-60
2021/08/26 03:41:09;;;;;;;;;10.25;8.50;;;;;15.66;65.09;101050.31;5097598;27;63279;-60
2021/08/26 03:43:34;;;;;;;;;10.25;9.25;;;;;15.66;65.13;101055.59;5097572;27;67680;-59
2021/08/26 03:46:00;;;;;;;;;9.75;9.75;;;;;15.68;65.48;101062.38;5097244;27;75653;-60
2021/08/26 03:48:25;;;;;;;;;11.00;9.00;;;;;15.70;65.19;101062.25;5097465;27;68039;-60
2021/08/26 03:50:50;;;;;;;;;9.75;7.50;;;;;15.68;65.15;101067.69;5097590;27;65200;-60
2021/08/26 03:53:16;;;;;;;;;7.00;6.75;;;;;15.69;65.14;101063.22;5097352;27;69249;-60
2021/08/26 03:55:41;;;;;;;;;9.75;7.75;;;;;15.70;65.11;101059.59;5097159;27;67081;-60
2021/08/26 03:58:06;;;;;;;;;11.50;10.75;;;;;15.70;65.04;101063.06;5097285;27;69243;-59
2021/08/26 04:00:32;;;;;;;;;10.25;8.75;;;;;15.73;65.33;101064.59;5097408;27;65099;-60
2021/08/26 04:02:57;;;;;;;;;11.50;9.50;;;;;15.76;64.66;101060.78;5098026;27;45508;-59
2021/08/26 04:05:22;;;;;;;;;7.25;6.00;;;;;15.75;64.79;101061.75;5096972;27;73264;-59
2021/08/26 04:07:48;;;;;;;;;6.75;6.50;;;;;15.76;64.53;101064.28;5097217;27;70628;-60
2021/08/26 04:10:13;;;;;;;;;7.50;6.00;;;;;15.75;64.14;101059.97;5097136;27;68279;-60
2021/08/26 04:12:38;;;;;;;;;7.00;7.00;;;;;15.76;64.13;101063.41;5097560;27;58473;-60
2021/08/26 04:15:05;;;;;;;;;7.00;7.00;;;;;15.77;64.01;101065.94;5097255;27;62292;-60
2021/08/26 04:17:30;;;;;;;;;8.25;8.25;;;;;15.76;64.35;101066.91;5097794;27;45881;-60
2021/08/26 04:19:55;;;;;;;;;6.75;6.75;;;;;15.75;64.73;101065.25;5097010;27;67549;-61
2021/08/26 04:22:21;;;;;;;;;7.50;6.00;;;;;15.73;64.48;101068.03;5096940;27;66183;-60
2021/08/26 04:24:46;;;;;;;;;10.00;7.00;;;;;15.74;64.62;101079.50;5096663;27;75565;-59
2021/08/26 04:27:11;;;;;;;;;8.25;8.25;;;;;15.72;64.79;101069.03;5097767;27;45221;-60
2021/08/26 04:29:37;;;;;;;;;10.50;6.25;;;;;15.73;64.48;101083.13;5096723;27;65132;-60
2021/08/26 04:32:03;;;;;;;;;8.50;6.75;;;;;15.69;64.94;101072.00;5097790;27;45283;-59
2021/08/26 04:34:28;;;;;;;;;8.50;8.00;;;;;15.68;64.56;101064.22;5097459;27;46005;-60
2021/08/26 04:36:53;;;;;;;;;6.50;5.25;;;;;15.66;64.88;101058.25;5097104;27;58213;-59
2021/08/26 04:39:19;;;;;;;;;6.25;5.75;;;;;15.62;65.21;101060.38;5096646;27;65584;-60
2021/08/26 04:41:44;;;;;;;;;6.00;5.75;;;;;15.63;64.94;101063.84;5096728;27;65890;-60
2021/08/26 04:44:09;;;;;;;;;6.75;5.75;;;;;15.61;65.33;101057.88;5097468;27;45899;-60
2021/08/26 04:46:35;;;;;;;;;9.00;6.75;;;;;15.61;65.02;101061.38;5097423;27;45409;-60
2021/08/26 04:49:00;;;;;;;;;10.75;8.25;;;;;15.61;65.06;101058.72;5097689;27;45533;-60
2021/08/26 04:51:26;;;;;;;;;8.75;5.50;;;;;15.61;65.02;101049.94;5097391;27;45397;-59
2021/08/26 04:53:51;;;;;;;;;10.25;6.75;;;;;15.62;65.29;101055.09;5096366;27;71255;-59
2021/08/26 04:56:16;;;;;;;;;6.00;6.00;;;;;15.62;65.47;101052.44;5096294;27;71362;-59
2021/08/26 04:58:42;;;;;;;;;5.75;5.75;;;;;15.63;64.95;101045.31;5078197;27;69260;-59
2021/08/26 05:01:07;;;;;;;;;9.25;5.75;;;;;15.65;65.08;101048.63;5097366;27;45578;-60
2021/08/26 05:03:33;;;;;;;;;4.75;4.75;;;;;15.67;65.33;101042.19;5096963;27;51070;-59
2021/08/26 05:05:58;;;;;;;;;6.25;5.00;;;;;15.69;65.43;101052.63;5096236;27;69772;-60
2021/08/26 05:08:23;;;;;;;;;7.00;6.00;;;;;15.71;65.26;101045.38;5097238;27;45338;-60
2021/08/26 05:10:49;;;;;;;;;7.00;4.75;;;;;15.73;65.49;101046.03;5097077;27;45334;-60
2021/08/26 05:13:14;;;;;;;;;9.00;6.75;;;;;15.75;65.44;101056.47;5096924;27;45369;-60
2021/08/26 05:15:39;;;;;;;;;7.25;5.75;;;;;15.75;65.62;101054.66;5096103;27;67971;-60
2021/08/26 05:18:05;;;;;;;;;9.50;4.50;;;;;15.77;65.22;101055.34;5096328;27;63547;-60
2021/08/26 05:20:30;;;;;;;;;10.25;5.25;;;;;15.78;65.45;101058.78;5096832;27;45626;-60
2021/08/26 05:22:57;;;;;;;;;7.50;5.25;;;;;15.78;65.49;101057.00;5096827;27;46276;-60
2021/08/26 05:25:25;;;;;;;;;6.50;5.00;;;;;15.77;65.42;101057.13;5096960;27;45971;-60
2021/08/26 05:27:51;;;;;;;;;3.75;3.75;;;;;15.75;65.62;101054.66;5078721;27;45331;-60
2021/08/26 05:30:16;;;;;;;;;5.00;4.75;;;;;15.76;65.63;101058.13;5095869;27;70534;-60
2021/08/26 05:32:41;;;;;;;;;7.00;4.75;;;;;15.76;65.72;101061.63;5096206;27;61981;-59
2021/08/26 05:35:07;;;;;;;;;5.50;2.75;;;;;15.74;65.68;101060.94;5095798;27;67680;-60
2021/08/26 05:37:33;;;;;;;;;5.25;3.25;;;;;15.76;65.82;101066.06;5096513;27;45257;-60
2021/08/26 05:39:58;;;;;;;;;5.00;4.00;;;;;15.76;65.87;101069.56;5096818;27;45228;-60
2021/08/26 05:42:23;;;;;;;;;5.00;5.00;;;;;15.79;65.68;101069.25;5097119;27;75819;-60
2021/08/26 05:44:49;;;;;;;;;5.00;5.00;;;;;15.82;65.84;101065.44;5100254;27;45375;-60
2021/08/26 05:47:14;;;;;;;;;4.25;2.75;;;;;15.85;66.04;101071.28;5100342;27;45332;-60
2021/08/26 05:49:40;;;;;;;;;3.75;3.75;;;;;15.87;65.96;101068.50;5100348;27;45576;-60
2021/08/26 05:52:05;;;;;;;;;5.50;4.50;;;;;15.89;66.28;101071.00;5099160;27;72320;-59
2021/08/26 05:54:30;;;;;;;;;4.00;3.75;;;;;15.90;66.21;101068.19;5100029;27;47089;-60
2021/08/26 05:56:58;;;;;;;;;4.50;2.75;;;;;15.92;66.28;101068.00;5099250;27;69051;-60
2021/08/26 05:59:24;;;;;;;;;4.25;4.25;;;;;15.95;66.61;101065.03;5100127;27;45334;-59
2021/08/26 06:01:49;;;;;;;;;4.00;3.00;;;;;15.97;66.41;101065.72;5099964;27;45307;-60
2021/08/26 06:04:15;;;;;;;;;5.00;4.00;;;;;16.02;66.49;101071.38;5100103;27;45352;-59
2021/08/26 06:06:40;;;;;;;;;5.25;3.75;;;;;16.04;66.22;101068.56;5099118;27;68114;-60
2021/08/26 06:09:05;;;;;;;;;4.25;3.00;;;;;16.06;66.30;101070.06;5099050;27;68585;-59
2021/08/26 06:11:31;;;;;;;;;3.50;3.50;;;;;16.10;66.99;101067.94;5099135;27;65695;-59
2021/08/26 06:13:56;;;;;;;;;4.50;3.00;;;;;16.14;66.98;101075.41;5099788;27;45260;-60
2021/08/26 06:16:21;;;;;;;;;4.75;3.00;;;;;16.19;66.88;101074.09;5098971;27;65780;-60
2021/08/26 06:18:47;;;;;;;;;5.25;4.00;;;;;16.23;66.50;101067.47;5099156;27;62634;-60
2021/08/26 06:21:15;;;;;;;;;4.00;4.00;;;;;16.25;66.63;101070.81;5098625;27;67272;-60
2021/08/26 06:23:40;;;;;;;;;4.25;4.25;;;;;16.30;66.61;101068.50;5099621;27;45267;-59
2021/08/26 06:26:05;;;;;;;;;3.25;3.25;;;;;16.33;66.67;101070.84;5098904;27;68296;-59
2021/08/26 06:28:31;;;;;;;;;4.25;3.00;;;;;16.35;66.57;101066.22;5099854;27;45439;-58
2021/08/26 06:30:56;;;;;;;;;4.25;3.00;;;;;16.38;66.97;101071.19;5064330;27;48192;-59
2021/08/26 06:33:22;;;;;;;;;3.50;2.75;;;;;16.41;66.68;101064.72;5098636;27;69811;-61
2021/08/26 06:35:47;;;;;;;;;1.00;0.00;;;;;16.43;66.95;101068.03;5081374;27;45379;-59
2021/08/26 06:38:12;;;;;;;;;4.00;4.00;;;;;16.45;66.85;101066.88;5099590;27;45291;-59
2021/08/26 06:40:38;;;;;;;;;6.25;5.00;;;;;16.52;66.62;101066.22;5098758;27;59613;-60
2021/08/26 06:43:03;;;;;;;;;4.00;3.00;;;;;16.56;67.01;101068.41;5099234;27;45460;-59
2021/08/26 06:45:28;;;;;;;;;3.00;3.00;;;;;16.59;66.88;101072.56;5098550;27;69393;-59
2021/08/26 06:47:54;;;;;;;;;4.00;2.00;;;;;16.63;66.63;101065.94;5099112;27;48782;-60
2021/08/26 06:50:19;;;;;;;;;4.50;3.50;;;;;16.68;66.66;101070.75;5098828;27;56753;-59
2021/08/26 06:52:45;;;;;;;;;4.75;2.00;;;;;16.72;66.71;101067.59;5098605;27;45424;-60
2021/08/26 06:55:10;;;;;;;;;3.00;3.00;;;;;16.75;66.57;101056.66;5098740;27;45417;-59
2021/08/26 06:57:36;;;;;;;;;5.00;4.00;;;;;16.81;66.83;101059.66;5098876;27;48103;-59
2021/08/26 07:00:01;;;;;;;;;5.50;3.25;;;;;16.85;66.59;101055.69;5098883;27;45369;-61
2021/08/26 07:02:26;;;;;;;;;3.00;3.00;;;;;16.90;66.91;101064.00;5098853;27;45500;-60
2021/08/26 07:04:52;;;;;;;;;3.00;1.75;;;;;16.91;67.05;101063.00;5099151;27;45453;-60
2021/08/26 07:07:17;;;;;;;;;4.75;3.25;;;;;16.95;66.81;101066.13;5098004;27;67653;-59
2021/08/26 07:09:43;;;;;;;;;4.00;3.00;;;;;16.99;66.86;101052.38;5097811;27;73890;-60
2021/08/26 07:12:08;;;;;;;;;5.00;3.25;;;;;17.04;66.80;101055.38;5097862;27;71906;-60
2021/08/26 07:14:33;;;;;;;;;4.00;4.00;;;;;17.11;66.88;101050.25;5098855;27;45842;-60
2021/08/26 07:16:59;;;;;;;;;4.75;3.25;;;;;17.18;66.49;101053.06;5098281;27;45474;-60
2021/08/26 07:19:24;;;;;;;;;3.50;2.50;;;;;17.23;66.56;101058.69;5097575;27;75642;-61
2021/08/26 07:21:50;;;;;;;;;3.00;3.00;;;;;17.30;66.31;101057.03;5098413;27;45215;-60
2021/08/26 07:24:15;;;;;;;;;2.50;1.50;;;;;17.35;66.29;101053.88;5098097;27;59863;-60
2021/08/26 07:26:41;;;;;;;;;6.25;3.25;;;;;17.40;66.27;101048.88;5098988;27;45532;-61
2021/08/26 07:29:07;;;;;;;;;3.25;3.00;;;;;17.46;66.32;101050.06;5098350;27;51332;-59
2021/08/26 07:31:32;;;;;;;;;5.00;3.25;;;;;17.50;65.78;101044.22;5097794;27;66777;-59
2021/08/26 07:33:57;;;;;;;;;4.00;3.00;;;;;17.54;65.74;101044.69;5097928;27;63322;-60
2021/08/26 07:36:23;;;;;;;;;4.25;3.00;;;;;17.59;66.05;101036.22;5097779;27;65121;-60
2021/08/26 07:38:48;;;;;;;;;5.00;3.00;;;;;17.62;65.56;101042.03;5098357;27;49088;-59
2021/08/26 07:41:13;;;;;;;;;6.00;2.75;;;;;17.67;65.50;101046.84;5097639;27;63383;-60
2021/08/26 07:43:39;;;;;;;;;6.25;4.50;;;;;17.70;65.57;101043.84;5098631;27;45815;-60
2021/08/26 07:46:04;;;;;;;;;4.25;4.00;;;;;17.74;65.56;101044.31;5097439;27;64628;-59
2021/08/26 07:48:30;;;;;;;;;3.75;3.75;;;;;17.77;65.43;101050.09;5097622;27;46120;-59
2021/08/26 07:50:58;;;;;;;;;4.00;3.75;;;;;17.80;65.13;101047.09;5098264;27;45387;-61
2021/08/26 07:53:24;;;;;;;;;4.75;4.00;;;;;17.84;65.12;101054.75;5080064;27;45372;-59
2021/08/26 07:55:49;;;;;;;;;5.00;5.00;;;;;17.86;65.17;101052.75;5098046;27;45942;-62
2021/08/26 07:58:14;;;;;;;;;7.00;6.25;;;;;17.88;65.25;101053.41;5097161;27;75312;-59
2021/08/26 08:00:40;;;;;;;;;4.25;3.50;;;;;17.90;65.21;101054.91;5097200;27;67451;-60
2021/08/26 08:03:05;;;;;;;;;6.00;4.00;;;;;17.92;65.23;101058.22;5097736;27;48623;-60
2021/08/26 08:05:31;;;;;;;;;5.25;5.00;;;;;17.94;65.13;101061.53;5096828;27;63670;-59
2021/08/26 08:07:56;;;;;;;;;6.00;5.75;;;;;17.99;65.15;101062.84;5097777;27;47261;-60
2021/08/26 08:10:22;;;;;;;;;7.50;6.00;;;;;18.03;65.00;101058.84;5097862;27;45272;-60
2021/08/26 08:12:47;;;;;;;;;9.00;8.00;;;;;18.07;64.75;101062.81;5097530;27;52781;-59
2021/08/26 08:15:13;;;;;;;;;6.00;5.75;;;;;18.12;64.78;101060.47;5097708;27;45467;-60
2021/08/26 08:17:38;;;;;;;;;5.00;4.75;;;;;18.15;64.93;101062.78;5071706;27;46303;-60
2021/08/26 08:20:05;;;;;;;;;5.75;5.00;;;;;18.17;64.74;101062.63;5091123;27;45395;-60
2021/08/26 08:22:30;;;;;;;;;4.00;4.00;;;;;18.20;64.58;101062.28;5087210;27;45385;-60
2021/08/26 08:24:56;;;;;;;;;4.00;4.00;;;;;18.22;64.69;101054.97;5088670;27;60486;-59
2021/08/26 08:27:21;;;;;;;;;5.00;4.75;;;;;18.23;64.27;101057.44;5087758;27;66553;-60
2021/08/26 08:29:47;;;;;;;;;5.50;3.75;;;;;18.22;64.50;101058.44;5088637;27;45452;-60
2021/08/26 08:32:12;;;;;;;;;5.25;4.25;;;;;18.24;64.63;101060.94;5087396;27;45479;-60
2021/08/26 08:34:37;;;;;;;;;4.25;4.00;;;;;18.26;64.54;101058.09;5087363;27;45365;-60
2021/08/26 08:37:04;;;;;;;;;5.75;5.00;;;;;18.27;64.62;101059.75;5087070;27;74350;-60
2021/08/26 08:39:29;;;;;;;;;9.50;4.75;;;;;18.30;64.60;101064.72;5085646;27;45434;-61
2021/08/26 08:41:55;;;;;;;;;3.00;3.00;;;;;18.28;64.72;101056.09;5085145;27;45174;-61
2021/08/26 08:44:20;;;;;;;;;6.75;4.75;;;;;18.30;64.56;101059.41;5085622;27;45181;-61
2021/08/26 08:46:48;;;;;;;;;4.00;4.00;;;;;18.30;64.65;101054.09;5082275;27;45458;-61
2021/08/26 08:49:13;;;;;;;;;4.00;3.00;;;;;18.32;64.68;101057.41;5063587;27;46093;-60
2021/08/26 08:51:39;;;;;;;;;4.75;3.25;;;;;18.35;64.63;101059.72;5062976;27;45427;-60
2021/08/26 08:54:05;;;;;;;;;6.00;6.00;;;;;18.39;64.83;101058.38;5053973;27;46143;-60
2021/08/26 08:56:30;;;;;;;;;4.75;3.50;;;;;18.40;64.70;101060.03;5049714;27;45534;-60
2021/08/26 08:58:57;;;;;;;;;5.00;4.00;;;;;18.42;64.84;101066.00;5079209;27;45508;-60
2021/08/26 09:01:23;;;;;;;;;4.25;4.00;;;;;18.45;64.63;101068.31;5061685;27;45470;-59
2021/08/26 09:03:48;;;;;;;;;4.00;4.00;;;;;18.49;64.74;101068.78;5079138;27;59969;-60
2021/08/26 09:06:13;;;;;;;;;5.00;3.00;;;;;18.50;64.68;101060.63;5080761;27;74625;-60
2021/08/26 09:08:39;;;;;;;;;3.25;3.00;;;;;18.54;64.89;101059.28;5078716;27;45224;-60
2021/08/26 09:11:11;;;;;;;;;3.50;3.25;;;;;18.55;65.04;101052.09;5061265;27;45521;-60
2021/08/26 09:13:37;;;;;;;;;5.25;4.00;;;;;18.58;64.76;101049.09;5087385;27;45442;-60
2021/08/26 09:16:02;;;;;;;;;3.75;3.00;;;;;18.60;64.86;101048.91;5085552;27;45360;-60
2021/08/26 09:18:28;;;;;;;;;3.50;3.00;;;;;18.62;64.85;101057.53;5090021;27;45670;-60
2021/08/26 09:20:57;;;;;;;;;5.00;3.50;;;;;18.66;64.76;101051.72;5056686;27;45514;-60
2021/08/26 09:23:24;;;;;;;;;3.75;3.00;;;;;18.74;65.03;101055.31;5085305;27;45367;-60
2021/08/26 09:25:50;;;;;;;;;5.50;3.50;;;;;18.77;64.60;101061.09;5095408;27;46165;-60
2021/08/26 09:28:25;;;;;;;;;5.00;5.00;;;;;18.81;64.50;101054.41;5093916;27;46228;-60
2021/08/26 09:30:56;;;;;;;;;4.00;3.75;;;;;18.84;64.66;101059.41;5094110;27;45487;-60
2021/08/26 09:33:21;;;;;;;;;5.50;4.00;;;;;18.90;64.75;101060.50;5056817;27;49296;-60
2021/08/26 09:35:46;;;;;;;;;3.00;3.00;;;;;18.96;64.23;101062.50;5074878;27;75326;-60
2021/08/26 09:38:12;;;;;;;;;3.75;3.00;;;;;18.98;64.22;101057.00;5074881;27;72033;-59
2021/08/26 09:40:42;;;;;;;;;5.00;3.00;;;;;19.03;64.33;101059.97;5057138;27;64367;-60
2021/08/26 09:43:07;;;;;;;;;3.00;3.00;;;;;19.04;64.01;101060.78;5088710;27;46458;-60
2021/08/26 09:45:34;;;;;;;;;4.75;2.50;;;;;19.06;63.88;101046.28;5089177;27;46052;-59
2021/08/26 09:48:00;;;;;;;;;4.50;3.25;;;;;19.12;64.32;101048.19;5087784;27;46030;-60
2021/08/26 09:50:40;;;;;;;;;3.00;3.00;;;;;19.22;63.90;101049.78;5088161;27;46504;-60
2021/08/26 09:53:06;;;;;;;;;4.75;3.00;;;;;19.30;64.34;101054.22;5084316;27;45294;-60
2021/08/26 09:55:51;;;;;;;;;4.00;3.00;;;;;19.35;63.64;101050.00;5083340;27;45428;-60
2021/08/26 09:58:21;;;;;;;;;2.50;2.00;;;;;19.37;63.46;101045.31;5089449;27;46549;-60
2021/08/26 10:00:46;;;;;;;;;4.00;2.00;;;;;19.40;63.47;101036.97;5071864;27;45513;-61
2021/08/26 10:03:14;;;;;;;;;2.00;2.00;;;;;19.47;63.17;101038.91;5068801;27;45516;-59
2021/08/26 10:05:42;;;;;;;;;2.25;2.25;;;;;19.50;63.29;101041.19;5087038;27;46071;-60
2021/08/26 10:08:07;;;;;;;;;2.50;2.25;;;;;19.55;62.61;101044.16;5092689;27;45967;-59
2021/08/26 10:10:33;;;;;;;;;1.25;1.25;;;;;19.58;62.71;101033.94;5091646;27;45505;-59
2021/08/26 10:13:00;;;;;;;;;2.75;2.75;;;;;19.61;62.65;101035.38;5073802;27;45365;-60
2021/08/26 10:15:25;;;;;;;;;2.00;2.00;;;;;19.64;62.47;101035.03;5058818;27;45280;-59
2021/08/26 10:17:51;;;;;;;;;2.50;2.00;;;;;19.68;62.64;101041.66;5088647;27;73188;-60
2021/08/26 10:20:17;;;;;;;;;1.00;1.00;;;;;19.72;62.18;101028.78;5064541;27;45283;-60
2021/08/26 10:22:42;;;;;;;;;3.00;2.00;;;;;19.75;62.18;101032.91;5062360;27;68741;-60
2021/08/26 10:25:08;;;;;;;;;1.00;1.00;;;;;19.76;61.75;101027.41;5082025;27;45354;-61
2021/08/26 10:27:33;;;;;;;;;1.75;1.75;;;;;19.79;62.26;101032.38;5062568;27;45657;-60
2021/08/26 10:29:59;;;;;;;;;1.00;1.00;;;;;19.78;62.38;101035.22;5063796;27;45680;-61
2021/08/26 10:32:25;;;;;;;;;0.25;0.00;;;;;19.76;63.10;101037.25;5082100;27;59845;-60
2021/08/26 10:35:10;;;;;;;;;2.25;1.00;;;;;19.69;62.98;101043.31;5077391;27;46167;-60
2021/08/26 10:37:55;;;;;;;;;2.50;1.00;;;;;19.63;63.42;101045.88;5078214;27;46043;-60
2021/08/26 10:40:37;;;;;;;;;4.00;1.00;;;;;19.56;63.36;101048.47;5090284;27;45388;-60
2021/08/26 10:43:03;;;;;;;;;1.00;1.00;;;;;19.50;63.37;101054.53;5078523;27;45329;-60
2021/08/26 10:45:33;;;;;;;;;2.00;2.00;;;;;19.45;62.77;101048.91;5082137;27;45949;-61
2021/08/26 10:48:02;;;;;;;;;4.25;2.50;;;;;19.37;62.90;101061.31;5078324;27;45498;-60
2021/08/26 10:50:35;;;;;;;;;1.00;1.00;;;;;19.36;63.31;101059.66;5096056;27;45223;-60
2021/08/26 10:53:04;;;;;;;;;1.75;1.75;;;;;19.38;62.98;101057.63;5092872;27;45394;-60
2021/08/26 10:55:38;;;;;;;;;2.00;2.00;;;;;19.40;63.08;101060.94;5094747;27;45449;-61
2021/08/26 11:00:51;;;;;;;;;3.50;2.75;;;;;19.47;63.35;101054.88;5093248;27;45540;-60
2021/08/26 11:03:31;;;;;;;;;3.00;2.00;;;;;19.48;62.97;101057.34;5089258;27;45330;-61
2021/08/26 11:05:57;;;;;;;;;1.00;1.00;;;;;19.53;62.36;101054.16;5089839;27;46385;-60
2021/08/26 11:08:26;;;;;;;;;2.75;2.00;;;;;19.56;61.87;101059.13;5073644;27;48326;-59
2021/08/26 11:10:52;;;;;;;;;4.25;3.00;;;;;19.58;61.83;101047.25;5092140;27;45536;-60
2021/08/26 11:13:33;;;;;;;;;1.00;1.00;;;;;19.64;62.18;101047.53;5086371;27;64197;-59
2021/08/26 11:16:23;;;;;;;;;3.00;2.00;;;;;19.69;61.26;101043.31;5072130;27;45309;-60
2021/08/26 11:18:48;;;;;;;;;3.75;2.50;;;;;19.73;61.38;101044.59;5086525;27;45498;-61
2021/08/26 11:21:13;;;;;;;;;7.00;5.50;;;;;19.79;61.51;101042.19;5056182;27;67432;-60
2021/08/26 11:23:44;;;;;;;;;3.00;3.00;;;;;19.85;61.51;101044.97;5051563;27;45521;-60